Terminal Aerodrome Forecast
Issued by NWS Goodland, KS

Home | Current Version | Previous Version | Text Only | Print | Product List | Glossary On
Versions: 1 2 3 4 5 6 7 8 9 10 11 12 13 14 15
575
FTUS43 KGLD 250329 AAB
TAFGLD
TAF AMD
KGLD 250329Z 2503/2524 09007KT P6SM -TSRA SCT080 OVC110CB
      TEMPO 2503/2505 VRB25G35KT 6SM TSRA
     FM250500 09011KT P6SM VCTS OVC110CB
     FM250600 10007KT P6SM BKN200
     FM251800 12010KT P6SM SCT200=

USA.gov is the U.S. government's official web portal to all federal, state and local government web resources and services.